createdAt,value
2018-07-22T04:01:03.814Z,61.88
2018-07-22T04:02:03.695Z,61.88
2018-07-22T04:03:56.403Z,67.50
2018-07-22T04:04:56.272Z,73.13
2018-07-22T04:06:48.955Z,78.75
2018-07-22T04:07:48.851Z,78.75
2018-07-22T04:09:41.614Z,84.38
2018-07-22T04:10:41.500Z,90.00
2018-07-22T04:12:34.177Z,95.63
2018-07-22T04:13:34.072Z,101.25
2018-07-22T04:15:26.778Z,106.88
2018-07-22T04:16:26.654Z,112.50
2018-07-22T04:18:19.334Z,118.13
2018-07-22T04:19:19.235Z,123.75
2018-07-22T04:21:11.936Z,129.38
2018-07-22T04:22:11.809Z,135.00
2018-07-22T04:24:04.493Z,135.00
2018-07-22T04:25:04.394Z,140.63
2018-07-22T04:26:57.093Z,151.88
2018-07-22T04:27:56.978Z,151.88
2018-07-22T04:29:49.688Z,163.13
2018-07-22T04:30:49.550Z,168.75
2018-07-22T04:32:42.235Z,174.38
2018-07-22T04:33:42.127Z,180.00
2018-07-22T04:35:34.827Z,185.63
2018-07-22T04:36:34.709Z,196.88
2018-07-22T04:38:27.392Z,196.88
2018-07-22T04:39:27.295Z,196.88
2018-07-22T04:41:19.994Z,196.88
2018-07-22T04:42:19.874Z,202.50
2018-07-22T04:44:12.555Z,202.50
2018-07-22T04:45:12.456Z,208.13
2018-07-22T04:47:05.161Z,213.75
2018-07-22T04:48:05.039Z,225.00
2018-07-22T04:49:57.720Z,236.25
2018-07-22T04:50:57.618Z,247.50
2018-07-22T04:52:50.319Z,264.38
2018-07-22T04:53:50.195Z,270.00
2018-07-22T04:55:42.885Z,281.25
2018-07-22T04:56:42.783Z,286.88
2018-07-22T04:58:35.482Z,298.13
2018-07-22T04:59:35.362Z,298.13
2018-07-22T05:01:28.044Z,309.38
2018-07-22T05:02:27.937Z,315.00
2018-07-22T05:04:20.649Z,320.63
2018-07-22T05:05:20.522Z,326.25
2018-07-22T05:07:13.240Z,337.50
2018-07-22T05:08:13.108Z,343.13
2018-07-22T05:10:05.790Z,348.75
2018-07-22T05:11:05.690Z,354.38
2018-07-22T05:12:58.388Z,360.00
2018-07-22T05:13:58.276Z,365.63
2018-07-22T05:15:50.954Z,376.88
2018-07-22T05:16:50.852Z,382.50
2018-07-22T05:18:43.554Z,393.75
2018-07-22T05:19:43.437Z,399.38
2018-07-22T05:21:36.119Z,410.63
2018-07-22T05:22:36.018Z,410.63
2018-07-22T05:24:28.723Z,416.25
2018-07-22T05:25:28.600Z,421.88
2018-07-22T05:27:21.282Z,427.50
2018-07-22T05:28:21.239Z,433.13
2018-07-22T05:30:13.895Z,438.75
2018-07-22T05:31:13.782Z,444.38
2018-07-22T05:33:06.462Z,455.63
2018-07-22T05:34:06.360Z,461.25
2018-07-22T05:35:59.077Z,472.50
2018-07-22T05:36:58.940Z,472.50
2018-07-22T05:38:51.624Z,483.75
2018-07-22T05:39:51.525Z,489.38
2018-07-22T05:41:44.232Z,506.25
2018-07-22T05:42:44.107Z,511.88
2018-07-22T05:44:36.792Z,523.13
2018-07-22T05:45:36.688Z,528.75
2018-07-22T05:47:29.403Z,540.00
2018-07-22T05:48:29.287Z,545.63
2018-07-22T05:50:21.972Z,551.25
2018-07-22T05:51:21.864Z,556.88
2018-07-22T05:53:14.572Z,562.50
2018-07-22T05:54:14.453Z,568.13
2018-07-22T05:56:07.133Z,579.38
2018-07-22T05:57:07.039Z,579.38
2018-07-22T05:58:59.745Z,596.25
2018-07-22T05:59:59.623Z,601.88
2018-07-22T06:01:52.327Z,613.13
2018-07-22T06:02:52.216Z,613.13
2018-07-22T06:04:44.926Z,630.00
2018-07-22T06:05:44.801Z,635.63
2018-07-22T06:07:37.516Z,652.50
2018-07-22T06:08:37.383Z,658.13
2018-07-22T06:10:30.073Z,663.75
2018-07-22T06:11:29.975Z,680.63
2018-07-22T06:13:22.683Z,691.88
2018-07-22T06:14:22.560Z,691.88
2018-07-22T06:16:15.248Z,703.13
2018-07-22T06:17:15.148Z,708.75
2018-07-22T06:19:07.851Z,720.00
2018-07-22T06:20:07.730Z,720.00
2018-07-22T06:22:00.413Z,731.25
2018-07-22T06:23:00.317Z,742.50
2018-07-22T06:24:53.033Z,770.63
2018-07-22T06:25:52.913Z,793.13
2018-07-22T06:27:45.601Z,939.38
2018-07-22T06:28:45.497Z,1299.38
2018-07-22T06:30:38.210Z,2221.88
2018-07-22T06:31:38.093Z,2328.75
2018-07-22T06:33:30.780Z,2165.63
2018-07-22T06:34:30.686Z,2210.63
2018-07-22T06:36:23.398Z,2238.75
2018-07-22T06:37:23.284Z,2210.63
2018-07-22T06:39:15.986Z,2233.13
2018-07-22T06:40:15.885Z,2272.50
2018-07-22T06:42:08.630Z,2311.88
2018-07-22T06:43:08.492Z,2368.13
2018-07-22T06:45:01.225Z,2424.38
2018-07-22T06:46:01.139Z,2463.75
2018-07-22T06:47:53.801Z,2356.88
2018-07-22T06:48:53.712Z,2334.38
2018-07-22T06:50:46.432Z,2581.88
2018-07-22T06:51:46.324Z,2598.75
2018-07-22T06:53:39.129Z,2565.00
2018-07-22T06:54:38.938Z,2525.63
2018-07-22T06:56:31.665Z,2593.13
2018-07-22T06:57:31.558Z,2536.88
2018-07-22T06:59:24.265Z,2773.13
2018-07-22T07:00:24.176Z,2761.88
2018-07-22T07:02:16.902Z,2773.13
2018-07-22T07:03:16.795Z,2818.13
2018-07-22T07:05:09.596Z,2840.63
2018-07-22T07:06:09.426Z,2756.25
2018-07-22T07:08:02.148Z,2953.13
2018-07-22T07:09:02.036Z,2891.25
2018-07-22T07:10:54.768Z,3015.00
2018-07-22T07:11:54.659Z,3031.88
2018-07-22T07:13:47.402Z,3121.88
2018-07-22T07:14:47.296Z,3054.38
2018-07-22T07:16:39.998Z,3206.25
2018-07-22T07:17:39.914Z,3043.13
2018-07-22T07:19:32.646Z,2958.75
2018-07-22T07:20:32.538Z,2857.50
2018-07-22T07:22:25.252Z,2981.25
2018-07-22T07:23:25.163Z,3088.13
2018-07-22T07:25:17.899Z,3313.13
2018-07-22T07:26:17.786Z,3420.00
2018-07-22T07:28:10.502Z,3133.13
2018-07-22T07:29:10.428Z,3245.63
2018-07-22T07:31:03.162Z,3549.38
2018-07-22T07:32:03.056Z,3538.13
2018-07-22T07:33:55.764Z,3346.88
2018-07-22T07:34:55.683Z,3425.63
2018-07-22T07:36:48.414Z,3318.75
2018-07-22T07:37:48.307Z,3301.88
2018-07-22T07:39:41.036Z,3341.25
2018-07-22T07:40:40.945Z,3465.00
2018-07-22T07:42:33.677Z,3442.50
2018-07-22T07:43:33.577Z,3414.38
2018-07-22T07:45:26.287Z,3515.63
2018-07-22T07:46:26.209Z,3622.50
2018-07-22T07:48:18.941Z,3555.00
2018-07-22T07:49:18.838Z,3555.00
2018-07-22T07:51:11.555Z,3583.13
2018-07-22T07:52:11.466Z,3633.75
2018-07-22T07:54:04.219Z,3661.88
2018-07-22T07:55:04.107Z,3532.50
2018-07-22T07:56:56.830Z,3465.00
2018-07-22T07:57:56.741Z,3526.88
2018-07-22T07:59:49.484Z,3729.38
2018-07-22T08:00:49.381Z,3813.75
2018-07-22T08:02:42.097Z,3448.13
2018-07-22T08:03:42.013Z,3594.38
2018-07-22T08:05:34.811Z,3740.63
2018-07-22T08:06:34.643Z,3656.25
2018-07-22T08:08:27.363Z,3498.75
2018-07-22T08:09:27.278Z,3628.13
2018-07-22T08:11:20.023Z,3740.63
2018-07-22T08:12:19.902Z,3898.13
2018-07-22T08:14:12.622Z,3915.00
2018-07-22T08:15:12.539Z,3706.88
2018-07-22T08:17:05.268Z,3166.88
2018-07-22T08:18:05.161Z,3133.13
2018-07-22T08:19:57.893Z,3566.25
2018-07-22T08:20:57.808Z,3183.75
2018-07-22T08:22:50.538Z,3268.13
2018-07-22T08:23:50.430Z,3886.88
2018-07-22T08:25:43.154Z,3819.38
2018-07-22T08:26:43.067Z,3802.50
2018-07-22T08:28:35.818Z,3695.63
2018-07-22T08:29:35.702Z,3813.75
2018-07-22T08:31:28.421Z,3723.75
2018-07-22T08:32:28.336Z,3487.50
2018-07-22T08:34:21.074Z,3740.63
2018-07-22T08:35:20.968Z,3639.38
2018-07-22T08:37:13.686Z,3453.75
2018-07-22T08:38:13.604Z,3442.50
2018-07-22T08:40:06.335Z,3470.63
2018-07-22T08:41:06.253Z,3538.13
2018-07-22T08:42:58.945Z,3442.50
2018-07-22T08:43:58.863Z,3296.25
2018-07-22T08:45:51.593Z,3178.13
2018-07-22T08:46:51.486Z,2880.00
2018-07-22T08:48:44.203Z,1479.38
2018-07-22T08:49:44.124Z,1271.25
2018-07-22T08:51:36.856Z,1096.88
2018-07-22T08:52:36.743Z,1068.75
2018-07-22T08:54:29.491Z,984.38
2018-07-22T08:55:29.403Z,973.13
2018-07-22T08:57:22.132Z,956.25
2018-07-22T08:58:22.023Z,928.13
2018-07-22T09:00:14.733Z,945.00
2018-07-22T09:01:14.653Z,928.13
2018-07-22T09:03:07.366Z,916.88
2018-07-22T09:04:07.255Z,905.63
2018-07-22T09:05:59.961Z,894.38
2018-07-22T09:06:59.865Z,894.38
2018-07-22T09:08:52.582Z,883.13
2018-07-22T09:09:52.474Z,877.50
2018-07-22T09:11:45.204Z,866.25
2018-07-22T09:12:45.087Z,860.63
2018-07-22T09:14:37.783Z,860.63
2018-07-22T09:15:37.695Z,860.63
2018-07-22T09:17:30.410Z,860.63
2018-07-22T09:18:30.297Z,849.38
2018-07-22T09:20:22.999Z,849.38
2018-07-22T09:21:22.907Z,849.38
2018-07-22T09:23:15.633Z,843.75
2018-07-22T09:24:15.512Z,838.13
2018-07-22T09:26:08.206Z,826.88
2018-07-22T09:27:08.169Z,821.25
2018-07-22T09:29:00.832Z,810.00
2018-07-22T09:30:00.714Z,804.38
2018-07-22T09:31:53.409Z,793.13
2018-07-22T09:32:53.314Z,787.50
2018-07-22T09:34:46.035Z,787.50
2018-07-22T09:35:45.982Z,781.88
2018-07-22T09:37:38.611Z,776.25
2018-07-22T09:38:38.515Z,776.25
2018-07-22T09:40:31.228Z,776.25
2018-07-22T09:41:31.110Z,776.25
2018-07-22T09:43:23.801Z,770.63
2018-07-22T09:44:23.712Z,776.25
2018-07-22T09:46:16.428Z,781.88
2018-07-22T09:47:16.310Z,787.50
2018-07-22T09:49:09.012Z,821.25
2018-07-22T09:50:08.917Z,838.13
2018-07-22T09:52:01.630Z,860.63
2018-07-22T09:53:01.522Z,877.50
2018-07-22T09:54:54.233Z,894.38
2018-07-22T09:55:54.120Z,888.75
2018-07-22T09:57:46.817Z,871.88
2018-07-22T09:58:46.723Z,860.63
2018-07-22T10:00:39.438Z,855.00
2018-07-22T10:01:39.325Z,843.75
2018-07-22T10:03:32.028Z,821.25
2018-07-22T10:04:31.934Z,810.00
2018-07-22T10:06:24.645Z,798.75
2018-07-22T10:07:24.531Z,798.75
2018-07-22T10:09:17.225Z,793.13
2018-07-22T10:10:17.132Z,793.13
2018-07-22T10:12:09.846Z,776.25
2018-07-22T10:13:09.732Z,765.00
2018-07-22T10:15:02.428Z,748.13
2018-07-22T10:16:02.329Z,748.13
2018-07-22T10:17:55.056Z,742.50
2018-07-22T10:18:54.937Z,742.50
2018-07-22T10:20:47.637Z,742.50
2018-07-22T10:21:47.546Z,748.13
2018-07-22T10:23:40.259Z,742.50
2018-07-22T10:24:40.139Z,736.88
2018-07-22T10:26:32.837Z,742.50
2018-07-22T10:27:32.744Z,742.50
2018-07-22T10:29:25.454Z,742.50
2018-07-22T10:30:25.343Z,736.88
2018-07-22T10:32:18.049Z,720.00
2018-07-22T10:33:17.942Z,708.75
2018-07-22T10:35:10.661Z,669.38
2018-07-22T10:36:10.546Z,669.38
2018-07-22T10:38:03.237Z,691.88
2018-07-22T10:39:03.146Z,686.25
2018-07-22T10:40:55.861Z,686.25
2018-07-22T10:41:55.738Z,691.88
2018-07-22T10:43:48.464Z,697.50
2018-07-22T10:44:48.345Z,697.50
2018-07-22T10:46:41.056Z,691.88
2018-07-22T10:47:40.959Z,686.25
2018-07-22T10:49:33.673Z,680.63
2018-07-22T10:50:33.556Z,680.63
2018-07-22T10:52:26.256Z,675.00
2018-07-22T10:53:26.229Z,680.63
2018-07-22T10:55:18.914Z,691.88
2018-07-22T10:56:18.766Z,691.88
2018-07-22T10:58:11.470Z,686.25
2018-07-22T10:59:11.369Z,686.25
2018-07-22T11:01:04.085Z,703.13
2018-07-22T11:02:03.970Z,725.63
2018-07-22T11:03:56.672Z,776.25
2018-07-22T11:04:56.584Z,815.63
2018-07-22T11:06:49.293Z,787.50
2018-07-22T11:07:49.187Z,815.63
2018-07-22T11:09:41.874Z,849.38
2018-07-22T11:10:41.777Z,860.63
2018-07-22T11:12:34.496Z,922.50
2018-07-22T11:13:34.384Z,928.13
2018-07-22T11:15:27.084Z,973.13
2018-07-22T11:16:26.983Z,933.75
2018-07-22T11:18:19.708Z,916.88
2018-07-22T11:19:19.591Z,843.75
2018-07-22T11:21:12.377Z,894.38
2018-07-22T11:22:12.187Z,939.38
2018-07-22T11:24:04.916Z,1040.63
2018-07-22T11:25:04.799Z,1091.25
2018-07-22T11:26:57.492Z,1108.13
2018-07-22T11:27:57.400Z,1119.38
2018-07-22T11:29:50.119Z,1113.75
2018-07-22T11:30:50.012Z,1063.13
2018-07-22T11:32:42.723Z,967.50
2018-07-22T11:33:42.620Z,939.38
2018-07-22T11:35:35.340Z,832.50
2018-07-22T11:36:35.226Z,821.25
2018-07-22T11:38:27.932Z,877.50
2018-07-22T11:39:27.857Z,916.88
2018-07-22T11:41:21.061Z,956.25
2018-07-22T11:42:20.935Z,945.00
2018-07-22T11:44:13.633Z,1006.88
2018-07-22T11:45:13.542Z,1012.50
2018-07-22T11:47:06.263Z,1001.25
2018-07-22T11:48:06.147Z,928.13
2018-07-22T11:49:58.841Z,832.50
2018-07-22T11:50:58.739Z,821.25
2018-07-22T11:52:51.510Z,770.63
2018-07-22T11:53:51.364Z,748.13
2018-07-22T11:55:44.087Z,776.25
2018-07-22T11:56:43.983Z,810.00
2018-07-22T11:58:36.675Z,905.63
2018-07-22T11:59:36.585Z,928.13
2018-07-22T12:01:29.324Z,860.63
2018-07-22T12:02:29.192Z,843.75
2018-07-22T12:04:21.911Z,860.63
2018-07-22T12:05:21.821Z,894.38
2018-07-22T12:07:14.549Z,961.88
2018-07-22T12:08:14.420Z,1001.25
2018-07-22T12:10:07.134Z,1023.75
2018-07-22T12:11:07.034Z,1040.63
2018-07-22T12:12:59.754Z,1091.25
2018-07-22T12:13:59.657Z,1158.75
2018-07-22T12:15:52.356Z,1209.38
2018-07-22T12:16:52.266Z,1215.00
2018-07-22T12:18:44.994Z,1119.38
2018-07-22T12:19:44.891Z,1119.38
2018-07-22T12:21:37.594Z,928.13
2018-07-22T12:22:37.508Z,849.38
2018-07-22T12:24:30.214Z,725.63
2018-07-22T12:25:30.106Z,725.63
2018-07-22T12:27:22.815Z,753.75
2018-07-22T12:28:22.709Z,804.38
2018-07-22T12:30:15.471Z,916.88
2018-07-22T12:31:15.340Z,984.38
2018-07-22T12:33:08.035Z,1012.50
2018-07-22T12:34:07.941Z,1040.63
2018-07-22T12:36:00.674Z,1063.13
2018-07-22T12:37:00.555Z,1080.00
2018-07-22T12:38:53.254Z,1108.13
2018-07-22T12:39:53.172Z,1102.50
2018-07-22T12:41:45.880Z,1130.63
2018-07-22T12:42:45.778Z,1141.88
2018-07-22T12:44:38.470Z,1141.88
2018-07-22T12:45:38.382Z,1096.88
2018-07-22T12:47:31.111Z,1051.88
2018-07-22T12:48:30.982Z,1051.88
2018-07-22T12:50:23.672Z,1136.25
2018-07-22T12:51:23.584Z,1141.88
2018-07-22T12:53:16.297Z,1153.13
2018-07-22T12:54:16.188Z,1215.00
2018-07-22T12:56:08.924Z,1198.13
2018-07-22T12:57:08.829Z,1192.50
2018-07-22T12:59:01.627Z,1153.13
2018-07-22T13:00:01.513Z,1141.88
2018-07-22T13:01:54.240Z,1130.63
2018-07-22T13:02:54.132Z,1102.50
2018-07-22T13:04:46.894Z,1063.13
2018-07-22T13:05:46.756Z,1012.50
2018-07-22T13:07:39.485Z,905.63
2018-07-22T13:08:39.360Z,939.38
2018-07-22T13:10:32.074Z,922.50
2018-07-22T13:11:31.972Z,911.25
2018-07-22T13:13:24.690Z,877.50
2018-07-22T13:14:24.579Z,871.88
2018-07-22T13:16:17.282Z,883.13
2018-07-22T13:17:17.190Z,905.63
2018-07-22T13:19:09.930Z,916.88
2018-07-22T13:20:09.805Z,922.50
2018-07-22T13:22:02.506Z,776.25
2018-07-22T13:23:02.420Z,703.13
2018-07-22T13:24:55.139Z,669.38
2018-07-22T13:25:55.019Z,686.25
2018-07-22T13:27:47.728Z,686.25
2018-07-22T13:28:47.626Z,652.50
2018-07-22T13:30:40.368Z,641.25
2018-07-22T13:31:40.239Z,658.13
2018-07-22T13:33:32.944Z,646.88
2018-07-22T13:34:32.849Z,630.00
2018-07-22T13:36:25.560Z,646.88
2018-07-22T13:37:25.446Z,686.25
2018-07-22T13:39:18.148Z,731.25
2018-07-22T13:40:18.046Z,753.75
2018-07-22T13:42:10.758Z,832.50
2018-07-22T13:43:10.653Z,905.63
2018-07-22T13:45:03.371Z,1023.75
2018-07-22T13:46:03.251Z,1023.75
2018-07-22T13:47:55.976Z,1080.00
2018-07-22T13:48:55.871Z,1113.75
2018-07-22T13:50:48.564Z,1158.75
2018-07-22T13:51:48.472Z,1186.88
2018-07-22T13:53:41.186Z,1203.75
2018-07-22T13:54:41.070Z,1181.25
2018-07-22T13:56:33.768Z,1136.25
2018-07-22T13:57:33.676Z,1113.75
2018-07-22T13:59:26.399Z,1113.75
2018-07-22T14:00:26.297Z,1063.13
2018-07-22T14:02:19.004Z,843.75
2018-07-22T14:03:18.893Z,748.13
2018-07-22T14:05:11.597Z,596.25
2018-07-22T14:06:11.512Z,545.63
2018-07-22T14:08:04.230Z,478.13
2018-07-22T14:09:04.122Z,455.63
2018-07-22T14:10:56.826Z,444.38
2018-07-22T14:11:56.780Z,444.38
2018-07-22T14:13:49.448Z,450.00
2018-07-22T14:14:49.330Z,489.38
2018-07-22T14:16:42.022Z,545.63
2018-07-22T14:17:41.981Z,573.75
2018-07-22T14:19:34.641Z,607.50
2018-07-22T14:20:34.529Z,635.63
2018-07-22T14:22:27.231Z,641.25
2018-07-22T14:23:27.132Z,641.25
2018-07-22T14:25:19.855Z,635.63
2018-07-22T14:26:19.742Z,641.25
2018-07-22T14:28:12.516Z,652.50
2018-07-22T14:29:12.351Z,646.88
2018-07-22T14:31:05.079Z,607.50
2018-07-22T14:32:04.954Z,573.75
2018-07-22T14:33:57.648Z,596.25
2018-07-22T14:34:57.608Z,646.88
2018-07-22T14:36:50.276Z,697.50
2018-07-22T14:37:50.150Z,703.13
2018-07-22T14:39:42.852Z,736.88
2018-07-22T14:40:42.795Z,697.50
2018-07-22T14:42:35.481Z,669.38
2018-07-22T14:43:35.354Z,691.88
2018-07-22T14:45:28.064Z,810.00
2018-07-22T14:46:27.973Z,815.63
2018-07-22T14:48:20.685Z,781.88
2018-07-22T14:49:20.579Z,714.38
2018-07-22T14:51:13.274Z,646.88
2018-07-22T14:52:13.178Z,601.88
2018-07-22T14:54:05.899Z,545.63
2018-07-22T14:55:05.785Z,534.38
2018-07-22T14:56:58.504Z,523.13
2018-07-22T14:57:58.382Z,540.00
2018-07-22T14:59:51.081Z,545.63
2018-07-22T15:00:51.001Z,630.00
2018-07-22T15:02:43.713Z,630.00
2018-07-22T15:03:43.595Z,646.88
2018-07-22T15:05:36.294Z,630.00
2018-07-22T15:06:36.199Z,618.75
2018-07-22T15:08:28.919Z,630.00
2018-07-22T15:09:28.801Z,624.38
2018-07-22T15:11:21.493Z,573.75
2018-07-22T15:12:21.397Z,545.63
2018-07-22T15:14:14.134Z,517.50
2018-07-22T15:15:14.013Z,523.13
2018-07-22T15:17:06.718Z,528.75
2018-07-22T15:18:06.617Z,545.63
2018-07-22T15:19:59.334Z,573.75
2018-07-22T15:20:59.220Z,568.13
2018-07-22T15:22:51.918Z,540.00
2018-07-22T15:23:51.828Z,528.75
2018-07-22T15:25:44.541Z,545.63
2018-07-22T15:26:44.424Z,562.50
2018-07-22T15:28:37.125Z,585.00
2018-07-22T15:29:37.039Z,585.00
2018-07-22T15:31:29.889Z,590.63
2018-07-22T15:32:29.636Z,601.88
2018-07-22T15:34:22.338Z,551.25
2018-07-22T15:35:22.239Z,540.00
2018-07-22T15:37:14.981Z,534.38
2018-07-22T15:38:14.855Z,500.63
2018-07-22T15:40:07.562Z,478.13
2018-07-22T15:41:07.461Z,478.13
2018-07-22T15:43:00.223Z,506.25
2018-07-22T15:44:00.068Z,506.25
2018-07-22T15:45:52.775Z,489.38
2018-07-22T15:46:52.674Z,466.88
2018-07-22T15:48:45.393Z,433.13
2018-07-22T15:49:45.282Z,433.13
2018-07-22T15:51:37.977Z,466.88
2018-07-22T15:52:37.880Z,466.88
2018-07-22T15:54:30.608Z,461.25
2018-07-22T15:55:30.617Z,450.00
2018-07-22T15:57:23.189Z,444.38
2018-07-22T15:58:23.096Z,450.00
2018-07-22T16:00:15.803Z,450.00
2018-07-22T16:01:15.716Z,455.63
2018-07-22T16:03:08.387Z,483.75
2018-07-22T16:04:08.289Z,500.63
2018-07-22T16:06:01.009Z,517.50
2018-07-22T16:07:00.917Z,511.88
2018-07-22T16:08:53.590Z,517.50
2018-07-22T16:09:53.497Z,517.50
2018-07-22T16:11:46.207Z,528.75
2018-07-22T16:12:46.100Z,540.00
2018-07-22T16:14:38.799Z,545.63
2018-07-22T16:15:38.694Z,545.63
2018-07-22T16:17:31.440Z,551.25
2018-07-22T16:18:31.316Z,556.88
2018-07-22T16:20:24.010Z,562.50
2018-07-22T16:21:23.927Z,562.50
2018-07-22T16:23:16.703Z,551.25
2018-07-22T16:24:16.517Z,540.00
2018-07-22T16:26:09.234Z,517.50
2018-07-22T16:27:09.119Z,517.50
2018-07-22T16:29:01.835Z,528.75
2018-07-22T16:30:01.732Z,540.00
2018-07-22T16:31:54.461Z,540.00
2018-07-22T16:32:54.342Z,534.38
2018-07-22T16:34:47.038Z,523.13
2018-07-22T16:35:46.950Z,523.13
2018-07-22T16:37:39.677Z,523.13
2018-07-22T16:38:39.564Z,523.13
2018-07-22T16:40:32.252Z,500.63
2018-07-22T16:41:32.154Z,495.00
2018-07-22T16:43:24.911Z,489.38
2018-07-22T16:44:24.796Z,489.38
2018-07-22T16:46:17.497Z,478.13
2018-07-22T16:47:17.404Z,466.88
2018-07-22T16:49:10.113Z,444.38
2018-07-22T16:50:10.016Z,421.88
2018-07-22T16:52:02.696Z,393.75
2018-07-22T16:53:02.604Z,382.50
2018-07-22T16:54:55.326Z,382.50
2018-07-22T16:55:55.211Z,388.13
2018-07-22T16:57:47.911Z,382.50
2018-07-22T16:58:47.816Z,376.88
2018-07-22T17:00:40.540Z,365.63
2018-07-22T17:01:40.425Z,360.00
2018-07-22T17:03:33.154Z,337.50
2018-07-22T17:04:33.028Z,326.25
2018-07-22T17:06:25.721Z,315.00
2018-07-22T17:07:25.629Z,326.25
2018-07-22T17:09:18.355Z,337.50
2018-07-22T17:10:18.219Z,354.38
2018-07-22T17:12:10.926Z,331.88
2018-07-22T17:13:10.834Z,320.63
2018-07-22T17:15:03.544Z,286.88
2018-07-22T17:16:03.426Z,275.63
2018-07-22T17:17:56.119Z,275.63
2018-07-22T17:18:56.027Z,270.00
2018-07-22T17:20:48.737Z,264.38
2018-07-22T17:21:48.622Z,264.38
2018-07-22T17:23:41.306Z,247.50
2018-07-22T17:24:41.209Z,236.25
2018-07-22T17:26:33.932Z,225.00
2018-07-22T17:27:33.811Z,219.38
2018-07-22T17:29:26.508Z,208.13
2018-07-22T17:30:26.406Z,208.13
2018-07-22T17:32:19.130Z,196.88
2018-07-22T17:33:19.017Z,196.88
2018-07-22T17:35:11.709Z,191.25
2018-07-22T17:36:11.626Z,185.63
2018-07-22T17:38:04.344Z,180.00
2018-07-22T17:39:04.291Z,180.00
2018-07-22T17:40:56.922Z,174.38
2018-07-22T17:41:56.825Z,168.75
2018-07-22T17:43:49.539Z,168.75
2018-07-22T17:44:49.428Z,174.38
2018-07-22T17:46:42.117Z,168.75
2018-07-22T17:47:42.028Z,180.00
2018-07-22T17:49:34.753Z,185.63
2018-07-22T17:50:34.626Z,191.25
2018-07-22T17:52:27.328Z,196.88
2018-07-22T17:53:27.219Z,196.88
2018-07-22T17:55:19.929Z,208.13
2018-07-22T17:56:19.818Z,202.50
2018-07-22T17:58:12.507Z,208.13
2018-07-22T17:59:12.460Z,219.38
2018-07-22T18:01:05.165Z,247.50
2018-07-22T18:02:05.051Z,264.38
2018-07-22T18:03:57.748Z,281.25
2018-07-22T18:04:57.651Z,281.25
2018-07-22T18:06:50.361Z,275.63
2018-07-22T18:07:50.243Z,264.38
2018-07-22T18:09:42.939Z,247.50
2018-07-22T18:10:42.844Z,253.13
2018-07-22T18:12:35.567Z,241.88
2018-07-22T18:13:35.452Z,236.25
2018-07-22T18:15:28.154Z,219.38
2018-07-22T18:16:28.077Z,208.13
2018-07-22T18:18:20.765Z,196.88
2018-07-22T18:19:20.646Z,191.25
2018-07-22T18:21:13.379Z,180.00
2018-07-22T18:22:13.250Z,180.00
2018-07-22T18:24:05.948Z,168.75
2018-07-22T18:25:05.852Z,168.75
2018-07-22T18:26:58.584Z,163.13
2018-07-22T18:27:58.455Z,168.75
2018-07-22T18:29:51.155Z,163.13
2018-07-22T18:30:51.051Z,163.13
2018-07-22T18:32:43.768Z,157.50
2018-07-22T18:33:43.653Z,157.50
2018-07-22T18:35:36.341Z,151.88
2018-07-22T18:36:36.243Z,146.25
2018-07-22T18:38:28.959Z,140.63
2018-07-22T18:39:28.844Z,135.00
2018-07-22T18:41:21.602Z,129.38
2018-07-22T18:42:21.517Z,123.75
2018-07-22T18:44:14.273Z,118.13
2018-07-22T18:45:14.108Z,112.50
2018-07-22T18:47:06.821Z,112.50
2018-07-22T18:48:06.709Z,112.50
2018-07-22T18:49:59.424Z,101.25
2018-07-22T18:50:59.352Z,101.25
2018-07-22T18:52:52.526Z,95.63
2018-07-22T18:53:52.405Z,90.00
2018-07-22T18:55:45.120Z,90.00
2018-07-22T18:56:45.026Z,90.00
2018-07-22T18:58:37.734Z,84.38
2018-07-22T18:59:37.619Z,78.75
2018-07-22T19:01:30.323Z,73.13
2018-07-22T19:02:30.214Z,73.13
2018-07-22T19:04:22.923Z,67.50
2018-07-22T19:05:22.867Z,67.50
2018-07-22T19:07:15.502Z,61.88
2018-07-22T19:08:15.399Z,61.88
2018-07-22T19:10:08.119Z,56.25
2018-07-22T19:11:07.992Z,56.25
2018-07-22T19:13:00.712Z,56.25
2018-07-22T19:14:00.590Z,50.63
2018-07-22T19:15:53.308Z,45.00
2018-07-22T19:16:53.194Z,45.00
2018-07-22T19:18:45.887Z,39.38
2018-07-22T19:19:45.844Z,33.75
2018-07-22T19:21:38.509Z,33.75
2018-07-22T19:22:38.391Z,28.13
2018-07-22T19:24:31.086Z,28.13
2018-07-22T19:25:30.988Z,22.50
2018-07-22T19:27:23.695Z,22.50
2018-07-22T19:28:23.577Z,22.50
2018-07-22T19:30:16.272Z,16.88
2018-07-22T19:31:16.174Z,16.88
2018-07-22T19:33:08.883Z,16.88
2018-07-22T19:34:08.765Z,11.25
2018-07-22T19:36:01.467Z,11.25
2018-07-22T19:37:01.364Z,11.25
2018-07-22T19:38:54.086Z,11.25
2018-07-22T19:39:53.979Z,11.25
2018-07-22T19:41:46.684Z,5.63
2018-07-22T19:42:46.560Z,5.63
2018-07-22T19:44:39.257Z,5.63
2018-07-22T19:45:39.152Z,5.63
2018-07-22T19:47:31.860Z,5.63
2018-07-22T19:48:31.748Z,5.63
2018-07-22T19:50:24.433Z,0.00
2018-07-22T19:51:24.337Z,0.00
2018-07-22T19:53:17.046Z,0.00
2018-07-22T19:54:16.932Z,0.00
2018-07-22T19:56:09.618Z,0.00
2018-07-22T19:57:09.515Z,0.00
2018-07-22T19:59:02.237Z,0.00
2018-07-22T20:00:02.119Z,0.00
2018-07-22T20:01:54.835Z,0.00
2018-07-22T20:02:54.747Z,0.00
2018-07-22T20:04:47.429Z,0.00
2018-07-22T20:05:47.317Z,0.00
2018-07-22T20:07:40.052Z,0.00
2018-07-22T20:08:39.930Z,0.00
2018-07-22T20:10:32.635Z,0.00
2018-07-22T20:11:32.542Z,0.00
2018-07-22T20:13:25.240Z,0.00
2018-07-22T20:14:25.127Z,0.00
2018-07-22T20:16:17.819Z,0.00
2018-07-22T20:17:17.722Z,0.00
2018-07-22T20:19:10.434Z,0.00
2018-07-22T20:20:10.314Z,0.00
2018-07-22T20:22:03.043Z,0.00
2018-07-22T20:23:02.907Z,0.00
2018-07-22T20:24:55.603Z,0.00
2018-07-22T20:25:55.503Z,0.00
2018-07-22T20:27:48.223Z,0.00
2018-07-22T20:28:48.101Z,0.00
2018-07-22T20:30:40.790Z,0.00
2018-07-22T20:31:40.711Z,0.00
2018-07-22T20:33:33.400Z,0.00
2018-07-22T20:34:33.297Z,0.00
2018-07-22T20:36:25.984Z,0.00
2018-07-22T20:37:25.886Z,0.00
2018-07-22T20:39:18.590Z,0.00
2018-07-22T20:40:18.476Z,0.00
2018-07-22T20:42:11.158Z,0.00
2018-07-22T20:43:11.062Z,0.00
2018-07-22T20:45:03.779Z,0.00
2018-07-22T20:46:03.668Z,0.00
2018-07-22T20:47:56.357Z,0.00
2018-07-22T20:48:56.260Z,0.00
2018-07-22T20:50:48.972Z,0.00
2018-07-22T20:51:48.857Z,0.00
2018-07-22T20:53:41.578Z,0.00
2018-07-22T20:54:41.450Z,0.00
2018-07-22T20:56:34.150Z,0.00
2018-07-22T20:57:34.045Z,0.00
2018-07-22T20:59:26.759Z,0.00
2018-07-22T21:00:26.644Z,0.00
2018-07-22T21:02:19.331Z,0.00
2018-07-22T21:03:19.230Z,0.00
2018-07-22T21:05:11.945Z,0.00
2018-07-22T21:06:11.823Z,0.00
2018-07-22T21:08:04.527Z,0.00
2018-07-22T21:09:04.414Z,0.00
2018-07-22T21:10:57.121Z,0.00
2018-07-22T21:11:57.006Z,0.00
2018-07-22T21:13:49.695Z,0.00
2018-07-22T21:14:49.599Z,0.00
2018-07-22T21:16:42.307Z,0.00
2018-07-22T21:17:42.200Z,0.00
2018-07-22T21:19:34.875Z,0.00
2018-07-22T21:20:34.784Z,0.00
2018-07-22T21:22:27.482Z,0.00
2018-07-22T21:23:27.367Z,0.00
2018-07-22T21:25:20.054Z,0.00
2018-07-22T21:26:19.956Z,0.00
2018-07-22T21:28:12.663Z,0.00
2018-07-22T21:29:12.546Z,0.00
2018-07-22T21:31:05.233Z,0.00
2018-07-22T21:32:05.131Z,0.00
2018-07-22T21:33:57.846Z,0.00
2018-07-22T21:34:57.728Z,0.00
2018-07-22T21:36:50.422Z,0.00
2018-07-22T21:37:50.323Z,0.00
2018-07-22T21:39:43.032Z,0.00
2018-07-22T21:40:42.915Z,0.00
2018-07-22T21:42:35.611Z,0.00
2018-07-22T21:43:35.506Z,0.00
2018-07-22T21:45:28.221Z,0.00
2018-07-22T21:46:28.101Z,0.00
2018-07-22T21:48:20.788Z,0.00
2018-07-22T21:49:20.743Z,0.00
2018-07-22T21:51:13.403Z,0.00
2018-07-22T21:52:13.278Z,0.00
2018-07-22T21:54:05.976Z,0.00
2018-07-22T21:55:05.872Z,0.00
2018-07-22T21:56:58.570Z,0.00
2018-07-22T21:57:58.448Z,0.00
2018-07-22T21:59:51.141Z,0.00
